Time;durP1;ratioP1;P1;durP2;ratioP2;P2;SDS_P1;SDS_P2;PMS_P1;PMS_P2;Temp;Humidity;BMP_temperature;BMP_pressure;BME280_temperature;BME280_humidity;BME280_pressure;Samples;Min_cycle;Max_cycle;Signal;HPM_P1;HPM_P2
2023/05/20 00:02:15;;;;;;;;;17.00;14.33;;;;;;;;4950800;28;45838;-74
2023/05/20 00:04:40;;;;;;;;;17.00;12.00;;;;;;;;4948947;28;45965;-74
2023/05/20 00:07:06;;;;;;;;;22.67;17.33;;;;;;;;4949366;28;45527;-73
2023/05/20 00:09:31;;;;;;;;;18.00;16.00;;;;;;;;4950085;28;45783;-73
2023/05/20 00:11:56;;;;;;;;;17.00;13.67;;;;;;;;4950558;28;46054;-75
2023/05/20 00:14:21;;;;;;;;;16.33;16.33;;;;;;;;4950398;28;45734;-75
2023/05/20 00:16:47;;;;;;;;;15.67;12.33;;;;;;;;4950870;28;45606;-77
2023/05/20 00:19:12;;;;;;;;;18.00;13.33;;;;;;;;4951690;28;45507;-75
2023/05/20 00:21:37;;;;;;;;;16.00;12.33;;;;;;;;4950248;28;45473;-75
2023/05/20 00:24:03;;;;;;;;;13.67;12.00;;;;;;;;4951312;28;45476;-77
2023/05/20 00:26:28;;;;;;;;;15.00;13.67;;;;;;;;4951532;28;46092;-76
2023/05/20 00:28:53;;;;;;;;;17.00;14.67;;;;;;;;4951345;28;45840;-75
2023/05/20 00:31:18;;;;;;;;;17.00;14.67;;;;;;;;4941161;28;45805;-75
2023/05/20 00:33:44;;;;;;;;;13.33;12.33;;;;;;;;4950318;28;45863;-76
2023/05/20 00:36:09;;;;;;;;;18.33;15.67;;;;;;;;4948498;28;46203;-75
2023/05/20 00:38:34;;;;;;;;;14.33;13.67;;;;;;;;4940326;28;46369;-74
2023/05/20 00:40:59;;;;;;;;;18.00;14.67;;;;;;;;4944262;28;45760;-74
2023/05/20 00:43:25;;;;;;;;;18.33;12.00;;;;;;;;4941356;28;45742;-75
2023/05/20 00:45:54;;;;;;;;;12.67;11.00;;;;;;;;4944181;28;46071;-74
2023/05/20 00:48:20;;;;;;;;;19.33;14.67;;;;;;;;4949316;28;45603;-74
2023/05/20 00:50:46;;;;;;;;;17.33;16.00;;;;;;;;4948772;28;45472;-74
2023/05/20 00:53:11;;;;;;;;;20.00;14.33;;;;;;;;4947494;28;45477;-76
2023/05/20 00:55:36;;;;;;;;;14.67;12.33;;;;;;;;4948983;28;46032;-75
2023/05/20 00:58:02;;;;;;;;;9.33;9.00;;;;;;;;4950630;28;45591;-75
2023/05/20 01:00:27;;;;;;;;;18.33;17.67;;;;;;;;4950036;28;45611;-74
2023/05/20 01:02:54;;;;;;;;;14.67;11.67;;;;;;;;4946804;28;45942;-74
2023/05/20 01:05:19;;;;;;;;;25.33;18.67;;;;;;;;4947109;28;45428;-74
2023/05/20 01:07:44;;;;;;;;;15.33;14.00;;;;;;;;4950280;28;45460;-73
2023/05/20 01:10:10;;;;;;;;;20.33;17.33;;;;;;;;4948845;28;45781;-74
2023/05/20 01:12:45;;;;;;;;;25.00;20.33;;;;;;;;4953051;28;45776;-74
2023/05/20 01:15:11;;;;;;;;;23.67;18.00;;;;;;;;4949130;28;47128;-75
2023/05/20 01:17:46;;;;;;;;;15.00;13.67;;;;;;;;4950546;28;45528;-74
2023/05/20 01:20:12;;;;;;;;;16.67;12.33;;;;;;;;4965369;28;45817;-75
2023/05/20 01:22:38;;;;;;;;;19.00;16.67;;;;;;;;4943331;28;45709;-75
2023/05/20 01:25:04;;;;;;;;;19.67;15.67;;;;;;;;4954194;28;45563;-75
2023/05/20 01:27:29;;;;;;;;;20.33;18.00;;;;;;;;4945561;28;45619;-72
2023/05/20 01:29:55;;;;;;;;;18.67;15.00;;;;;;;;4967929;28;45691;-73
2023/05/20 01:32:22;;;;;;;;;19.67;16.33;;;;;;;;4955150;28;45611;-73
2023/05/20 01:34:48;;;;;;;;;13.33;13.33;;;;;;;;4960165;28;46564;-72
2023/05/20 01:37:14;;;;;;;;;20.33;20.33;;;;;;;;4950722;28;45548;-72
2023/05/20 01:39:43;;;;;;;;;17.33;17.00;;;;;;;;4954263;28;45423;-73
2023/05/20 01:42:09;;;;;;;;;15.33;13.33;;;;;;;;4954984;28;45711;-74
2023/05/20 01:44:34;;;;;;;;;18.67;15.67;;;;;;;;4958138;28;46273;-72
2023/05/20 01:47:00;;;;;;;;;20.33;17.00;;;;;;;;4961486;28;45933;-74
2023/05/20 01:49:25;;;;;;;;;21.00;15.67;;;;;;;;4954237;28;45411;-73
2023/05/20 01:51:51;;;;;;;;;16.33;12.33;;;;;;;;4953469;28;45723;-75
2023/05/20 01:54:16;;;;;;;;;18.00;16.00;;;;;;;;4951377;28;46425;-74
2023/05/20 01:56:41;;;;;;;;;19.33;16.67;;;;;;;;4952319;28;45663;-73
2023/05/20 01:59:06;;;;;;;;;17.00;16.00;;;;;;;;4951260;28;45639;-73
2023/05/20 02:01:31;;;;;;;;;20.00;16.33;;;;;;;;4951954;28;45749;-73
2023/05/20 02:03:57;;;;;;;;;23.00;18.67;;;;;;;;4950739;28;48597;-73
2023/05/20 02:06:22;;;;;;;;;20.33;14.00;;;;;;;;4953285;28;45813;-74
2023/05/20 02:08:47;;;;;;;;;17.67;15.33;;;;;;;;4952432;28;45871;-72
2023/05/20 02:11:12;;;;;;;;;17.33;13.67;;;;;;;;4952229;28;46962;-73
2023/05/20 02:13:38;;;;;;;;;15.33;14.00;;;;;;;;4957075;28;45859;-74
2023/05/20 02:16:03;;;;;;;;;18.67;16.00;;;;;;;;4948224;28;45513;-73
2023/05/20 02:18:28;;;;;;;;;19.67;15.67;;;;;;;;4952065;28;45600;-73
2023/05/20 02:20:54;;;;;;;;;17.33;11.67;;;;;;;;4963274;28;45757;-74
2023/05/20 02:23:19;;;;;;;;;16.67;16.00;;;;;;;;4951692;28;46059;-75
2023/05/20 02:25:45;;;;;;;;;22.00;17.67;;;;;;;;4954014;28;45523;-74
2023/05/20 02:28:10;;;;;;;;;22.00;17.33;;;;;;;;4951827;28;45604;-74
2023/05/20 02:30:36;;;;;;;;;19.67;17.00;;;;;;;;4960043;28;45480;-74
2023/05/20 02:33:01;;;;;;;;;16.67;16.00;;;;;;;;4957916;28;46807;-75
2023/05/20 02:35:27;;;;;;;;;13.33;11.67;;;;;;;;4954903;28;45364;-73
2023/05/20 02:37:52;;;;;;;;;16.00;16.00;;;;;;;;4953844;28;45463;-72
2023/05/20 02:40:17;;;;;;;;;23.33;17.33;;;;;;;;4953142;28;45612;-74
2023/05/20 02:42:43;;;;;;;;;17.67;17.33;;;;;;;;4954570;28;45411;-74
2023/05/20 02:45:08;;;;;;;;;18.33;17.00;;;;;;;;4953215;28;45796;-73
2023/05/20 02:47:33;;;;;;;;;21.33;17.00;;;;;;;;4950617;28;45624;-74
2023/05/20 02:49:59;;;;;;;;;22.50;14.00;;;;;;;;4952029;28;45441;-74
2023/05/20 02:52:24;;;;;;;;;18.67;18.00;;;;;;;;4950133;28;47309;-73
2023/05/20 02:54:49;;;;;;;;;17.67;17.00;;;;;;;;4952776;28;45705;-73
2023/05/20 02:57:15;;;;;;;;;18.00;16.67;;;;;;;;4951716;28;45510;-73
2023/05/20 02:59:41;;;;;;;;;18.33;15.67;;;;;;;;4952296;28;45354;-74
2023/05/20 03:02:06;;;;;;;;;24.00;19.00;;;;;;;;4951139;28;46410;-74
2023/05/20 03:04:31;;;;;;;;;18.67;15.33;;;;;;;;4953087;28;45568;-75
2023/05/20 03:06:56;;;;;;;;;23.67;19.33;;;;;;;;4935690;28;45476;-73
2023/05/20 03:09:23;;;;;;;;;23.67;21.00;;;;;;;;4953690;28;45449;-73
2023/05/20 03:11:48;;;;;;;;;19.00;18.67;;;;;;;;4958626;28;46622;-73
2023/05/20 03:14:13;;;;;;;;;19.00;17.67;;;;;;;;4956523;28;45522;-73
2023/05/20 03:16:39;;;;;;;;;26.67;18.67;;;;;;;;4942208;28;45398;-73
2023/05/20 03:19:04;;;;;;;;;27.33;19.67;;;;;;;;4958985;28;45852;-72
2023/05/20 03:21:29;;;;;;;;;17.00;17.00;;;;;;;;4958504;28;46179;-72
2023/05/20 03:23:54;;;;;;;;;15.67;12.00;;;;;;;;4951233;28;45463;-73
2023/05/20 03:26:20;;;;;;;;;24.00;20.00;;;;;;;;4951312;28;45808;-73
2023/05/20 03:28:45;;;;;;;;;22.00;19.33;;;;;;;;4959830;28;45599;-74
2023/05/20 03:31:11;;;;;;;;;18.67;14.67;;;;;;;;4947183;28;47194;-74
2023/05/20 03:33:36;;;;;;;;;19.33;17.67;;;;;;;;4952403;28;45909;-73
2023/05/20 03:36:01;;;;;;;;;26.33;19.33;;;;;;;;4949913;28;45638;-74
2023/05/20 03:38:27;;;;;;;;;22.00;19.33;;;;;;;;4949331;28;45397;-74
2023/05/20 03:40:52;;;;;;;;;23.33;19.00;;;;;;;;4949085;28;47622;-73
2023/05/20 03:43:17;;;;;;;;;19.67;18.67;;;;;;;;4949633;28;46010;-72
2023/05/20 03:45:42;;;;;;;;;18.00;17.67;;;;;;;;4952688;28;45445;-73
2023/05/20 03:48:08;;;;;;;;;16.33;14.33;;;;;;;;4952430;28;45691;-72
2023/05/20 03:50:33;;;;;;;;;19.33;15.67;;;;;;;;4952335;28;45890;-74
2023/05/20 03:52:58;;;;;;;;;17.33;15.67;;;;;;;;4958159;28;45750;-72
2023/05/20 03:55:24;;;;;;;;;22.00;20.67;;;;;;;;4948533;28;45797;-74
2023/05/20 03:57:49;;;;;;;;;23.33;19.33;;;;;;;;4946934;28;47336;-73
2023/05/20 04:00:15;;;;;;;;;21.67;18.00;;;;;;;;4944301;28;45832;-74
2023/05/20 04:02:41;;;;;;;;;17.67;17.33;;;;;;;;4950736;28;45420;-74
2023/05/20 04:05:07;;;;;;;;;24.00;22.33;;;;;;;;4945925;28;45538;-73
2023/05/20 04:07:33;;;;;;;;;22.33;17.33;;;;;;;;4945493;28;45439;-74
2023/05/20 04:09:58;;;;;;;;;15.00;11.67;;;;;;;;4951380;28;45571;-73
2023/05/20 04:12:29;;;;;;;;;21.00;18.33;;;;;;;;4953178;28;45608;-75
2023/05/20 04:14:54;;;;;;;;;23.33;20.67;;;;;;;;4938787;28;46435;-73
2023/05/20 04:17:19;;;;;;;;;20.33;19.33;;;;;;;;4939740;28;45978;-74
2023/05/20 04:19:45;;;;;;;;;18.33;16.00;;;;;;;;4938546;28;48109;-74
2023/05/20 04:22:10;;;;;;;;;26.67;18.67;;;;;;;;4940639;28;45704;-74
2023/05/20 04:24:36;;;;;;;;;27.00;23.67;;;;;;;;4940378;28;46400;-74
2023/05/20 04:27:02;;;;;;;;;24.33;21.33;;;;;;;;4941895;28;45362;-73
2023/05/20 04:29:28;;;;;;;;;19.67;17.33;;;;;;;;4950291;28;47250;-74
2023/05/20 04:31:57;;;;;;;;;18.33;17.67;;;;;;;;4948561;28;45590;-75
2023/05/20 04:34:25;;;;;;;;;19.33;17.67;;;;;;;;4958281;28;45441;-73
2023/05/20 04:36:50;;;;;;;;;26.33;21.00;;;;;;;;4950785;28;45579;-73
2023/05/20 04:39:17;;;;;;;;;24.67;22.00;;;;;;;;4948391;28;46695;-74
2023/05/20 04:41:43;;;;;;;;;29.33;23.33;;;;;;;;4958403;28;45911;-74
2023/05/20 04:44:08;;;;;;;;;17.67;17.67;;;;;;;;4946833;28;45704;-74
2023/05/20 04:46:33;;;;;;;;;21.67;19.67;;;;;;;;4950512;28;45796;-74
2023/05/20 04:48:58;;;;;;;;;32.00;27.67;;;;;;;;4963590;28;47077;-75
2023/05/20 04:51:24;;;;;;;;;22.67;19.33;;;;;;;;4957545;28;45778;-75
2023/05/20 04:53:49;;;;;;;;;30.67;22.33;;;;;;;;4947626;28;45455;-73
2023/05/20 04:56:15;;;;;;;;;18.67;17.33;;;;;;;;4955894;28;45889;-74
2023/05/20 04:58:40;;;;;;;;;19.33;16.00;;;;;;;;4953204;28;45641;-77
2023/05/20 05:01:05;;;;;;;;;16.00;16.00;;;;;;;;4944846;28;45812;-76
2023/05/20 05:03:31;;;;;;;;;21.33;16.33;;;;;;;;4951245;28;45476;-76
2023/05/20 05:05:56;;;;;;;;;23.67;21.00;;;;;;;;4948726;28;46332;-77
2023/05/20 05:08:21;;;;;;;;;28.33;21.67;;;;;;;;4949380;28;45598;-76
2023/05/20 05:10:47;;;;;;;;;22.67;20.00;;;;;;;;4958429;28;45755;-77
2023/05/20 05:13:12;;;;;;;;;20.67;18.33;;;;;;;;4955607;28;45759;-78
2023/05/20 05:15:37;;;;;;;;;22.00;19.00;;;;;;;;4952638;28;47018;-76
2023/05/20 05:18:03;;;;;;;;;26.00;20.33;;;;;;;;4951417;28;45794;-75
2023/05/20 05:20:28;;;;;;;;;16.67;14.67;;;;;;;;4966778;28;45715;-75
2023/05/20 05:22:53;;;;;;;;;22.00;21.33;;;;;;;;4966035;28;45833;-75
2023/05/20 05:25:18;;;;;;;;;21.00;18.67;;;;;;;;4955516;28;45734;-77
2023/05/20 05:27:44;;;;;;;;;24.00;22.33;;;;;;;;4954079;28;47346;-75
2023/05/20 05:30:09;;;;;;;;;28.00;21.00;;;;;;;;4954539;28;45545;-76
2023/05/20 05:32:35;;;;;;;;;23.00;21.00;;;;;;;;4947621;28;45466;-75
2023/05/20 05:35:00;;;;;;;;;19.67;19.00;;;;;;;;4952987;28;45381;-75
2023/05/20 05:37:26;;;;;;;;;28.00;20.67;;;;;;;;4953799;28;45687;-76
2023/05/20 05:39:51;;;;;;;;;23.33;21.33;;;;;;;;4955680;28;45844;-74
2023/05/20 05:42:16;;;;;;;;;24.33;23.67;;;;;;;;4955614;28;45712;-75
2023/05/20 05:44:42;;;;;;;;;24.67;18.67;;;;;;;;4952658;28;46859;-75
2023/05/20 05:47:07;;;;;;;;;29.33;23.67;;;;;;;;4953428;28;45453;-72
2023/05/20 05:49:32;;;;;;;;;24.00;22.00;;;;;;;;4953734;28;45318;-74
2023/05/20 05:51:58;;;;;;;;;21.33;18.33;;;;;;;;4956367;28;45839;-72
2023/05/20 05:54:23;;;;;;;;;24.33;20.33;;;;;;;;4954098;28;45900;-73
2023/05/20 05:56:50;;;;;;;;;24.00;22.33;;;;;;;;4954887;28;46122;-71
2023/05/20 05:59:15;;;;;;;;;22.67;22.00;;;;;;;;4952752;28;45714;-74
2023/05/20 06:01:40;;;;;;;;;19.67;19.67;;;;;;;;4953088;28;45527;-74
2023/05/20 06:04:05;;;;;;;;;19.00;17.67;;;;;;;;4944443;28;45443;-73
2023/05/20 06:06:31;;;;;;;;;21.67;19.33;;;;;;;;4946909;28;47406;-75
2023/05/20 06:08:56;;;;;;;;;21.00;19.00;;;;;;;;4951720;28;45843;-75
2023/05/20 06:11:22;;;;;;;;;21.33;21.00;;;;;;;;4953928;28;46249;-74
2023/05/20 06:13:48;;;;;;;;;29.00;20.00;;;;;;;;4951135;28;45446;-73
2023/05/20 06:16:13;;;;;;;;;26.33;22.67;;;;;;;;4945373;28;45815;-74
2023/05/20 06:18:38;;;;;;;;;23.67;15.00;;;;;;;;4956079;28;45717;-75
2023/05/20 06:21:03;;;;;;;;;19.00;17.33;;;;;;;;4963088;28;45439;-75
2023/05/20 06:23:29;;;;;;;;;19.00;17.00;;;;;;;;4955708;28;45742;-74
2023/05/20 06:25:58;;;;;;;;;22.00;18.67;;;;;;;;4951207;28;47664;-75
2023/05/20 06:28:23;;;;;;;;;21.33;17.67;;;;;;;;4953650;28;45590;-75
2023/05/20 06:30:48;;;;;;;;;30.33;22.33;;;;;;;;4953301;28;45389;-76
2023/05/20 06:33:14;;;;;;;;;28.33;23.00;;;;;;;;4949541;28;45397;-74
2023/05/20 06:35:39;;;;;;;;;23.00;18.67;;;;;;;;4952052;28;45906;-75
2023/05/20 06:38:04;;;;;;;;;26.00;19.33;;;;;;;;4954266;28;45552;-77
2023/05/20 06:40:30;;;;;;;;;22.33;18.67;;;;;;;;4951825;28;45823;-76
2023/05/20 06:42:55;;;;;;;;;18.67;14.33;;;;;;;;4952914;28;45586;-73
2023/05/20 06:45:20;;;;;;;;;19.67;14.67;;;;;;;;4953210;28;46413;-72
2023/05/20 06:47:46;;;;;;;;;16.33;13.33;;;;;;;;4951409;28;45389;-73
2023/05/20 06:50:12;;;;;;;;;17.67;17.00;;;;;;;;4947648;28;45607;-75
2023/05/20 06:52:37;;;;;;;;;17.00;16.67;;;;;;;;4936275;28;45868;-73
2023/05/20 06:55:03;;;;;;;;;17.67;17.00;;;;;;;;4939534;28;46657;-73
2023/05/20 06:57:28;;;;;;;;;20.33;19.00;;;;;;;;4939797;28;45897;-74
2023/05/20 06:59:53;;;;;;;;;18.33;17.33;;;;;;;;4944738;28;45758;-73
2023/05/20 07:02:19;;;;;;;;;16.33;16.00;;;;;;;;4942334;28;46520;-73
2023/05/20 07:04:45;;;;;;;;;21.33;20.33;;;;;;;;4948533;28;45541;-73
2023/05/20 07:07:10;;;;;;;;;16.67;16.67;;;;;;;;4943143;28;45693;-74
2023/05/20 07:09:35;;;;;;;;;16.00;15.00;;;;;;;;4944218;28;45613;-73
2023/05/20 07:12:00;;;;;;;;;19.00;16.33;;;;;;;;4940922;28;46523;-73
2023/05/20 07:14:26;;;;;;;;;27.33;18.67;;;;;;;;4942642;28;46186;-73
2023/05/20 07:16:51;;;;;;;;;25.00;18.67;;;;;;;;4939633;28;45545;-74
2023/05/20 07:19:16;;;;;;;;;19.00;16.33;;;;;;;;4945001;28;45897;-73
2023/05/20 07:21:42;;;;;;;;;20.67;16.00;;;;;;;;4940381;28;45742;-74
2023/05/20 07:24:07;;;;;;;;;22.33;21.00;;;;;;;;4946774;28;45643;-74
2023/05/20 07:26:35;;;;;;;;;18.33;15.33;;;;;;;;4946756;28;45539;-74
2023/05/20 07:29:00;;;;;;;;;18.67;17.67;;;;;;;;4946765;28;45555;-74
2023/05/20 07:31:26;;;;;;;;;21.00;19.67;;;;;;;;4940986;28;46272;-73
2023/05/20 07:33:51;;;;;;;;;20.67;17.33;;;;;;;;4946110;28;46218;-75
2023/05/20 07:36:16;;;;;;;;;20.67;14.33;;;;;;;;4941961;28;45957;-73
2023/05/20 07:38:41;;;;;;;;;16.33;13.67;;;;;;;;4937504;28;46096;-75
2023/05/20 07:41:07;;;;;;;;;16.33;15.67;;;;;;;;4944672;28;45880;-73
2023/05/20 07:43:32;;;;;;;;;14.33;13.67;;;;;;;;4944556;28;45602;-75
2023/05/20 07:45:57;;;;;;;;;14.67;13.33;;;;;;;;4944830;28;45667;-73
2023/05/20 07:48:23;;;;;;;;;13.67;12.67;;;;;;;;4945212;28;45457;-75
2023/05/20 07:50:48;;;;;;;;;14.00;13.67;;;;;;;;4949134;28;45696;-77
2023/05/20 07:53:14;;;;;;;;;16.50;16.50;;;;;;;;4949959;28;46456;-75
2023/05/20 07:55:46;;;;;;;;;16.67;16.67;;;;;;;;4952653;28;45546;-82
2023/05/20 07:58:11;;;;;;;;;17.33;17.33;;;;;;;;4953414;28;45448;-72
2023/05/20 08:00:36;;;;;;;;;18.00;16.33;;;;;;;;4954729;28;45545;-75
2023/05/20 08:03:01;;;;;;;;;14.67;12.67;;;;;;;;4951430;28;46232;-74
2023/05/20 08:05:27;;;;;;;;;18.33;17.33;;;;;;;;4938977;28;45747;-77
2023/05/20 08:07:52;;;;;;;;;16.00;14.00;;;;;;;;4943985;28;45598;-72
2023/05/20 08:10:17;;;;;;;;;14.67;13.33;;;;;;;;4948343;28;46225;-73
2023/05/20 08:12:43;;;;;;;;;15.33;13.33;;;;;;;;4947006;28;45755;-73
2023/05/20 08:15:08;;;;;;;;;20.33;13.67;;;;;;;;4952541;28;45922;-72
2023/05/20 08:17:34;;;;;;;;;17.33;13.33;;;;;;;;4950019;28;45816;-74
2023/05/20 08:19:59;;;;;;;;;18.50;15.50;;;;;;;;4957855;28;45861;-73
2023/05/20 08:22:24;;;;;;;;;14.00;14.00;;;;;;;;4944118;28;45967;-73
2023/05/20 08:24:50;;;;;;;;;17.33;13.67;;;;;;;;4939337;28;45446;-74
2023/05/20 08:27:15;;;;;;;;;14.33;13.33;;;;;;;;4948770;28;45437;-73
2023/05/20 08:29:40;;;;;;;;;12.50;12.00;;;;;;;;4952412;28;45416;-74
2023/05/20 08:32:05;;;;;;;;;13.00;11.00;;;;;;;;4940569;28;48322;-72
2023/05/20 08:34:31;;;;;;;;;14.33;12.33;;;;;;;;4951791;28;45393;-72
2023/05/20 08:36:56;;;;;;;;;11.67;11.67;;;;;;;;4950132;28;45516;-72
2023/05/20 08:39:21;;;;;;;;;16.33;11.67;;;;;;;;4951816;28;45415;-73
2023/05/20 08:41:47;;;;;;;;;14.33;12.67;;;;;;;;4948011;28;45727;-74
2023/05/20 08:44:12;;;;;;;;;12.75;11.50;;;;;;;;4939746;28;45410;-73
2023/05/20 08:46:39;;;;;;;;;9.25;9.25;;;;;;;;4952412;28;45396;-74
2023/05/20 08:49:05;;;;;;;;;16.33;13.67;;;;;;;;4956033;28;45951;-74
2023/05/20 08:51:32;;;;;;;;;8.75;7.50;;;;;;;;4952794;28;45504;-73
2023/05/20 08:53:58;;;;;;;;;11.50;10.25;;;;;;;;4951684;28;45437;-74
2023/05/20 08:56:26;;;;;;;;;9.25;7.75;;;;;;;;4955991;28;45425;-73
2023/05/20 08:58:52;;;;;;;;;9.25;8.25;;;;;;;;4954804;28;45807;-74
2023/05/20 09:01:17;;;;;;;;;10.00;8.50;;;;;;;;4947529;28;47298;-73
2023/05/20 09:03:43;;;;;;;;;8.25;7.75;;;;;;;;4960148;28;45792;-73
2023/05/20 09:06:08;;;;;;;;;9.00;9.00;;;;;;;;4952146;28;45546;-75
2023/05/20 09:08:34;;;;;;;;;11.00;10.00;;;;;;;;4950188;28;46785;-74
2023/05/20 09:10:59;;;;;;;;;8.25;8.25;;;;;;;;4951414;28;46025;-73
2023/05/20 09:13:25;;;;;;;;;8.00;8.00;;;;;;;;4951872;28;45415;-72
2023/05/20 09:15:50;;;;;;;;;9.00;9.00;;;;;;;;4958017;28;45496;-73
2023/05/20 09:18:16;;;;;;;;;6.75;6.75;;;;;;;;4954765;28;45546;-74
2023/05/20 09:20:41;;;;;;;;;7.25;5.00;;;;;;;;4954138;28;45416;-72
2023/05/20 09:23:08;;;;;;;;;10.50;9.50;;;;;;;;4951738;28;45437;-74
2023/05/20 09:25:34;;;;;;;;;3.50;3.50;;;;;;;;4950835;28;45808;-73
2023/05/20 09:27:59;;;;;;;;;7.00;7.00;;;;;;;;4950919;28;45701;-75
2023/05/20 09:30:24;;;;;;;;;9.75;7.75;;;;;;;;4946661;28;46514;-75
2023/05/20 09:32:53;;;;;;;;;10.00;8.25;;;;;;;;4943119;28;45768;-76
2023/05/20 09:35:20;;;;;;;;;10.75;10.75;;;;;;;;4940640;28;45746;-75
2023/05/20 09:37:45;;;;;;;;;7.50;7.00;;;;;;;;4951408;28;45966;-73
2023/05/20 09:40:12;;;;;;;;;9.00;7.00;;;;;;;;4953935;28;46423;-75
2023/05/20 09:42:50;;;;;;;;;9.75;8.00;;;;;;;;4953140;28;45965;-73
2023/05/20 09:45:16;;;;;;;;;11.25;9.00;;;;;;;;4949538;28;45343;-74
2023/05/20 09:47:42;;;;;;;;;8.00;6.50;;;;;;;;4948101;28;45726;-75
2023/05/20 09:50:07;;;;;;;;;18.33;14.67;;;;;;;;4946321;28;46756;-73
2023/05/20 09:52:34;;;;;;;;;6.25;6.25;;;;;;;;4952862;28;45395;-74
2023/05/20 09:55:01;;;;;;;;;4.75;4.75;;;;;;;;4945244;28;45790;-76
2023/05/20 09:57:27;;;;;;;;;8.75;8.75;;;;;;;;4954396;28;45550;-76
2023/05/20 09:59:52;;;;;;;;;10.25;8.75;;;;;;;;4955035;28;45769;-74
2023/05/20 10:02:18;;;;;;;;;11.00;8.00;;;;;;;;4949703;28;45771;-75
2023/05/20 10:04:46;;;;;;;;;10.25;8.00;;;;;;;;4943945;28;45729;-74
2023/05/20 10:07:27;;;;;;;;;8.00;7.25;;;;;;;;4949120;28;46873;-76
2023/05/20 10:09:56;;;;;;;;;8.25;8.25;;;;;;;;4947435;28;45766;-75
2023/05/20 10:12:28;;;;;;;;;6.25;6.00;;;;;;;;4946737;28;45849;-73
2023/05/20 10:15:12;;;;;;;;;6.00;6.00;;;;;;;;4950581;28;45839;-75
2023/05/20 10:17:47;;;;;;;;;8.00;8.00;;;;;;;;4971077;28;47121;-76
2023/05/20 10:20:12;;;;;;;;;7.25;7.25;;;;;;;;4941977;28;46953;-74
2023/05/20 10:22:40;;;;;;;;;8.00;8.00;;;;;;;;4945590;28;45510;-76
2023/05/20 10:25:09;;;;;;;;;10.33;7.33;;;;;;;;4950099;28;45879;-76
2023/05/20 10:27:44;;;;;;;;;5.50;5.50;;;;;;;;4955628;28;45990;-78
2023/05/20 10:30:19;;;;;;;;;5.50;5.50;;;;;;;;4955759;28;45712;-77
2023/05/20 10:32:51;;;;;;;;;11.25;8.00;;;;;;;;4960441;28;45753;-78
2023/05/20 10:35:20;;;;;;;;;7.50;6.25;;;;;;;;4953851;28;46297;-75
2023/05/20 10:37:46;;;;;;;;;4.25;3.25;;;;;;;;4949719;28;46001;-75
2023/05/20 10:40:13;;;;;;;;;8.00;7.00;;;;;;;;4948595;28;45524;-74
2023/05/20 10:42:38;;;;;;;;;8.67;7.00;;;;;;;;4957756;28;45580;-76
2023/05/20 10:45:05;;;;;;;;;5.50;5.50;;;;;;;;4954039;28;45767;-74
2023/05/20 10:47:30;;;;;;;;;6.00;6.00;;;;;;;;4951095;28;45465;-75
2023/05/20 10:49:57;;;;;;;;;5.00;4.25;;;;;;;;4957471;28;45878;-76
2023/05/20 10:52:22;;;;;;;;;6.50;6.25;;;;;;;;4956007;28;45949;-76
2023/05/20 10:54:57;;;;;;;;;6.50;6.50;;;;;;;;4954243;28;45552;-76
2023/05/20 10:57:25;;;;;;;;;6.00;6.00;;;;;;;;4957603;28;45422;-83
2023/05/20 10:59:50;;;;;;;;;7.25;7.25;;;;;;;;4949715;28;46069;-77
2023/05/20 11:02:16;;;;;;;;;7.75;7.00;;;;;;;;4940397;28;45202;-76
2023/05/20 11:04:42;;;;;;;;;5.50;5.50;;;;;;;;4944962;28;45498;-74
2023/05/20 11:07:07;;;;;;;;;3.00;3.00;;;;;;;;4944946;28;45634;-76
2023/05/20 11:09:33;;;;;;;;;7.00;7.00;;;;;;;;4943000;28;46821;-76
2023/05/20 11:11:58;;;;;;;;;6.00;5.50;;;;;;;;4950870;28;45827;-75
2023/05/20 11:14:23;;;;;;;;;10.75;9.75;;;;;;;;4945451;28;46348;-74
2023/05/20 11:16:53;;;;;;;;;6.50;6.50;;;;;;;;4946004;28;45513;-75
2023/05/20 11:19:18;;;;;;;;;6.75;6.00;;;;;;;;4952785;28;46103;-76
2023/05/20 11:21:47;;;;;;;;;6.75;4.75;;;;;;;;4947513;28;45764;-75
2023/05/20 11:24:12;;;;;;;;;3.25;3.25;;;;;;;;4948661;28;46023;-75
2023/05/20 11:26:38;;;;;;;;;5.00;4.00;;;;;;;;4951315;28;45533;-75
2023/05/20 11:29:03;;;;;;;;;5.50;5.50;;;;;;;;4952040;28;45817;-75
2023/05/20 11:31:29;;;;;;;;;5.67;5.67;;;;;;;;4950181;28;45468;-75
2023/05/20 11:33:54;;;;;;;;;1.00;1.00;;;;;;;;4949339;28;45791;-73
2023/05/20 11:36:21;;;;;;;;;5.33;5.33;;;;;;;;4952265;28;45558;-74
2023/05/20 11:38:46;;;;;;;;;6.00;6.00;;;;;;;;4948865;28;45890;-74
2023/05/20 11:41:12;;;;;;;;;4.67;4.00;;;;;;;;4945833;28;45783;-76
2023/05/20 11:43:37;;;;;;;;;9.00;6.67;;;;;;;;4940379;28;45723;-75
2023/05/20 11:46:03;;;;;;;;;7.00;6.33;;;;;;;;4937938;28;45485;-75
2023/05/20 11:48:29;;;;;;;;;2.00;2.00;;;;;;;;4953520;28;45912;-77
2023/05/20 11:50:55;;;;;;;;;7.00;6.00;;;;;;;;4946868;28;45866;-76
2023/05/20 11:53:21;;;;;;;;;3.67;3.67;;;;;;;;4952662;28;45616;-76
2023/05/20 11:55:55;;;;;;;;;5.00;5.00;;;;;;;;4952713;28;45515;-76
2023/05/20 11:58:30;;;;;;;;;7.67;5.00;;;;;;;;4949004;28;46069;-76
2023/05/20 12:00:56;;;;;;;;;6.33;6.33;;;;;;;;4936751;28;45731;-74
2023/05/20 12:03:21;;;;;;;;;3.33;3.33;;;;;;;;4934095;28;45543;-77
2023/05/20 12:05:47;;;;;;;;;7.00;7.00;;;;;;;;4949336;28;46024;-76
2023/05/20 12:08:13;;;;;;;;;6.33;6.00;;;;;;;;4939278;28;47153;-76
2023/05/20 12:10:38;;;;;;;;;3.33;3.33;;;;;;;;4950523;28;45522;-77
2023/05/20 12:13:07;;;;;;;;;22.00;18.33;;;;;;;;4955674;28;45472;-77
2023/05/20 12:15:32;;;;;;;;;8.67;7.67;;;;;;;;4952590;28;45557;-78
2023/05/20 12:17:57;;;;;;;;;7.33;6.00;;;;;;;;4956266;28;45471;-76
2023/05/20 12:20:23;;;;;;;;;5.00;3.00;;;;;;;;4959111;28;45776;-76
2023/05/20 12:22:49;;;;;;;;;6.00;6.00;;;;;;;;4952117;28;45882;-77
2023/05/20 12:25:15;;;;;;;;;8.67;7.67;;;;;;;;4961646;28;45717;-75
2023/05/20 12:27:41;;;;;;;;;7.00;7.00;;;;;;;;4962011;28;46331;-76
2023/05/20 12:30:06;;;;;;;;;6.00;6.00;;;;;;;;4951396;28;45852;-78
2023/05/20 12:32:32;;;;;;;;;8.67;6.67;;;;;;;;4953113;28;45509;-77
2023/05/20 12:34:57;;;;;;;;;7.33;6.00;;;;;;;;4964425;28;45737;-76
2023/05/20 12:37:22;;;;;;;;;7.00;4.33;;;;;;;;4953916;28;46280;-76
2023/05/20 12:39:47;;;;;;;;;9.00;7.00;;;;;;;;4952969;28;45388;-75
2023/05/20 12:42:13;;;;;;;;;7.00;6.00;;;;;;;;4942001;28;45432;-77
2023/05/20 12:44:38;;;;;;;;;8.33;8.33;;;;;;;;4947644;28;45842;-74
2023/05/20 12:47:03;;;;;;;;;9.00;8.00;;;;;;;;4942163;28;45608;-75
2023/05/20 12:49:28;;;;;;;;;7.00;7.00;;;;;;;;4937200;28;45806;-75
2023/05/20 12:51:54;;;;;;;;;10.33;10.33;;;;;;;;4940482;28;45492;-75
2023/05/20 12:54:19;;;;;;;;;10.00;7.00;;;;;;;;4941928;28;45583;-74
2023/05/20 12:56:46;;;;;;;;;9.33;7.00;;;;;;;;4945839;28;46990;-74
2023/05/20 12:59:11;;;;;;;;;10.00;9.67;;;;;;;;4937204;28;45387;-76
2023/05/20 13:01:37;;;;;;;;;8.33;6.00;;;;;;;;4958756;28;45475;-75
2023/05/20 13:04:02;;;;;;;;;7.00;6.00;;;;;;;;4959358;28;46328;-74
2023/05/20 13:06:28;;;;;;;;;4.00;4.00;;;;;;;;4949681;28;46872;-74
2023/05/20 13:08:53;;;;;;;;;6.33;5.33;;;;;;;;4949511;28;45555;-76
2023/05/20 13:11:19;;;;;;;;;8.67;8.67;;;;;;;;4950832;28;45448;-74
2023/05/20 13:13:44;;;;;;;;;6.67;6.67;;;;;;;;4955527;28;45321;-74
2023/05/20 13:16:10;;;;;;;;;7.00;6.00;;;;;;;;4945253;28;47327;-74
2023/05/20 13:18:36;;;;;;;;;8.33;7.33;;;;;;;;4954221;28;45499;-74
2023/05/20 13:21:01;;;;;;;;;8.33;7.00;;;;;;;;4960262;28;45467;-74
2023/05/20 13:23:26;;;;;;;;;9.00;6.67;;;;;;;;4950708;28;46179;-73
2023/05/20 13:25:52;;;;;;;;;6.00;6.00;;;;;;;;4951549;28;47461;-73
2023/05/20 13:28:19;;;;;;;;;7.33;7.00;;;;;;;;4944612;28;46438;-75
2023/05/20 13:30:44;;;;;;;;;7.67;7.33;;;;;;;;4943028;28;45427;-72
2023/05/20 13:33:10;;;;;;;;;6.67;6.67;;;;;;;;4948792;28;45413;-74
2023/05/20 13:35:35;;;;;;;;;8.00;8.00;;;;;;;;4940781;28;45377;-73
2023/05/20 13:38:00;;;;;;;;;7.33;7.33;;;;;;;;4943048;28;45403;-74
2023/05/20 13:40:26;;;;;;;;;10.67;10.67;;;;;;;;4940414;28;45409;-73
2023/05/20 13:42:51;;;;;;;;;6.33;6.33;;;;;;;;4940768;28;45553;-74
2023/05/20 13:45:17;;;;;;;;;7.33;6.00;;;;;;;;4939295;28;46272;-72
2023/05/20 13:47:42;;;;;;;;;7.00;7.00;;;;;;;;4943386;28;45669;-72
2023/05/20 13:50:08;;;;;;;;;7.67;7.67;;;;;;;;4946127;28;45534;-75
2023/05/20 13:52:33;;;;;;;;;7.33;7.33;;;;;;;;4948061;28;45613;-74
2023/05/20 13:54:58;;;;;;;;;6.00;6.00;;;;;;;;4950125;28;47062;-76
2023/05/20 13:57:24;;;;;;;;;9.33;8.00;;;;;;;;4951351;28;45840;-83
2023/05/20 13:59:49;;;;;;;;;9.33;6.00;;;;;;;;4951704;28;45978;-74
2023/05/20 14:02:14;;;;;;;;;10.33;9.33;;;;;;;;4935125;28;46969;-75
2023/05/20 14:04:43;;;;;;;;;7.00;7.00;;;;;;;;4953061;28;46549;-74
2023/05/20 14:07:08;;;;;;;;;5.33;5.33;;;;;;;;4953146;28;45488;-73
2023/05/20 14:09:34;;;;;;;;;8.33;7.33;;;;;;;;4946322;28;45562;-74
2023/05/20 14:11:59;;;;;;;;;8.33;8.33;;;;;;;;4944820;28;45928;-76
2023/05/20 14:14:25;;;;;;;;;10.33;8.00;;;;;;;;4946028;28;46618;-75
2023/05/20 14:16:50;;;;;;;;;11.67;8.00;;;;;;;;4945901;28;45936;-77
2023/05/20 14:19:15;;;;;;;;;7.00;7.00;;;;;;;;4949421;28;46783;-75